San Acacia, NM (87831)

2:56 PM MST on February 07, 2016 (GMT -0700)
Community Road | | Change Station
CLOSE
Current Station
Personal Weather Station
Location: Polvadera, NM
Elevation: 4645 ft
Nearby Weather Stations

Elev 4645 ft 34.20 °N, 106.91 °W | Updated 5 seconds ago

Clear
Clear
61.6 °F
Feels Like 61.6 °F
N
4.7
Wind Variable Wind from NNE
Gusts 8.1 mph

Today
High -- | Low -- °F
--% Chance of Precip.
Yesterday
High -- | Low -- °F
Precip. -- in
Pressure 30.27 in
Visibility 10.0 miles
Clouds Clear
Dew Point 21 °F
Humidity 21%
Rainfall 0.00 in
Snow Depth Not available.
7:00 AM 5:43 PM
Waning Crescent, 1% visible
METAR KONM 072135Z AUTO 36010G14KT 10SM CLR 15/M11 A3027 RMK AO2 T01461111
Pressure 30.27 in
Visibility 10.0 miles
Clouds Clear
Dew Point 21 °F
Humidity 21%
Rainfall 0.00 in
Snow Depth Not available.
7:00 AM 5:43 PM
Waning Crescent, 1% visible
METAR KONM 072135Z AUTO 36010G14KT 10SM CLR 15/M11 A3027 RMK AO2 T01461111

10-Day Weather Forecast

Almanac

Astronomy

Feb. 07, 2016 Rise Set
Actual Time
Civil Twilight
Nautical Twilight
Astronomical Twilight
Moon
Length of Visible Light
Length of Day
Tomorrow will be .
, % of the Moon is Illuminated

Today's Extremes

State Highs State Lows

Community

WunderPhotos

Upload Photos

1,891,304 photos uploaded!

WunderBlog® & News

Nearby

Air Quality

  Air Quality AQ Index Pollutant
Not available.

Snow Depth

Station Depth Elevation

Earthquake Activity

City Distance Mag. Time & Date
Minimum magnitude displayed is 2.5.

Coastal Water Temperatures

Place Temperature

Stations

Nearby Weather Stations

Station Location Temp. Windchill Dew Point Humidity Wind Precip. Elev Updated Type
                   

Watches & Warnings

There are currently no watches in effect.